Buffalo Niagara International Airport Buffalo US
ICAO: KBUF
IATA: BUF
Category: Large
Scheduled Services: Yes

Elevation: 728 ft
TransAlt. 18000 ft.

Airport Communications:
APP/DEP:126.15
ATIS:135.35
CLNC DEL:124.7
GND:121.9
RDO:122.6
TWR:120.5

KBUF Zoom In..

If you have problems with the map follow the link
https://www.worldairports.se/pages/airport.php?
ICAO=KBUF

Runways:

(A) RW 05 length 8829 ft width 150 ft
ILS 108.50 / hdg 55

(B) RW 14 length 7161 ft width 150 ft
---- / hdg 138

(C) RW 23 length 8829 ft width 150 ft
ILS 111.30 / hdg 235

(D) RW 32 length 7161 ft width 150 ft
ILS 109.95 / hdg 318

Location; KBUF
Day. 12 / Time. 07.54 Zulu
* Altimeter: 30.57
* Temperature: -08° c. -17.6°f.
* Wind from: 240° Speed 05 kn.
Dewpoint: -14° c.
Visibility: 10 Statute Miles.
Clouds: Clear (automated report).

KBUF 120754Z 24005KT 10SM CLR M08/M14 A3057 RMK AO2 SLP366 T10831139 $


Wind From 240°
Speed 05 kn.

 
 
jpsmedia worldairports.se 2019   terms of use